<?xml version="1.0" encoding="UTF-8" standalone="no" ?>
<gpx xmlns="http://www.topografix.com/GPX/1/1" xmlns:xsi="http://www.w3.org/2001/XMLSchema-instance" xsi:schemaLocation="http://www.topografix.com/GPX/1/1 http://www.topografix.com/GPX/1/1/gpx.xsd" version="1.1" creator="VisuGPX - https://www.visugpx.com">
  <metadata>
    <name>L Aulp Du Seuil</name>
    <desc><![CDATA[grp_trc:[nouvelles]]]></desc>
  </metadata>
  <trk>
    <name><![CDATA[25 juin 2021 à 19:24:04]]></name>
    <cmt><![CDATA[25 juin 2021 à 19:24:04]]></cmt>
    <trkseg>
      <trkpt lat="45.3587" lon="5.91099">
        <ele>1240</ele>
        <time>2021-06-25T17:24:05Z</time>
      </trkpt>
      <trkpt lat="45.3587" lon="5.91098">
        <ele>1240</ele>
        <time>2021-06-25T17:24:06Z</time>
      </trkpt>
      <trkpt lat="45.35846" lon="5.91048">
        <ele>1252</ele>
        <time>2021-06-25T17:25:40Z</time>
      </trkpt>
      <trkpt lat="45.35846" lon="5.91047">
        <ele>1252</ele>
        <time>2021-06-25T17:25:41Z</time>
      </trkpt>
      <trkpt lat="45.35844" lon="5.91037">
        <ele>1254</ele>
        <time>2021-06-25T17:25:59Z</time>
      </trkpt>
      <trkpt lat="45.35842" lon="5.91029">
        <ele>1255</ele>
        <time>2021-06-25T17:26:09Z</time>
      </trkpt>
      <trkpt lat="45.35839" lon="5.91021">
        <ele>1258</ele>
        <time>2021-06-25T17:26:25Z</time>
      </trkpt>
      <trkpt lat="45.35837" lon="5.9101">
        <ele>1260</ele>
        <time>2021-06-25T17:26:37Z</time>
      </trkpt>
      <trkpt lat="45.35835" lon="5.91003">
        <ele>1262</ele>
        <time>2021-06-25T17:26:49Z</time>
      </trkpt>
      <trkpt lat="45.35834" lon="5.9099">
        <ele>1263</ele>
        <time>2021-06-25T17:27:02Z</time>
      </trkpt>
      <trkpt lat="45.35834" lon="5.90981">
        <ele>1266</ele>
        <time>2021-06-25T17:27:18Z</time>
      </trkpt>
      <trkpt lat="45.35837" lon="5.90956">
        <ele>1274</ele>
        <time>2021-06-25T17:28:14Z</time>
      </trkpt>
      <trkpt lat="45.35836" lon="5.90944">
        <ele>1276</ele>
        <time>2021-06-25T17:28:27Z</time>
      </trkpt>
      <trkpt lat="45.35826" lon="5.9093">
        <ele>1280</ele>
        <time>2021-06-25T17:28:58Z</time>
      </trkpt>
      <trkpt lat="45.35818" lon="5.90916">
        <ele>1283</ele>
        <time>2021-06-25T17:29:24Z</time>
      </trkpt>
      <trkpt lat="45.35816" lon="5.90903">
        <ele>1286</ele>
        <time>2021-06-25T17:29:44Z</time>
      </trkpt>
      <trkpt lat="45.35812" lon="5.90895">
        <ele>1287</ele>
        <time>2021-06-25T17:29:59Z</time>
      </trkpt>
      <trkpt lat="45.35811" lon="5.90884">
        <ele>1289</ele>
        <time>2021-06-25T17:30:19Z</time>
      </trkpt>
      <trkpt lat="45.35809" lon="5.90863">
        <ele>1294</ele>
        <time>2021-06-25T17:31:07Z</time>
      </trkpt>
      <trkpt lat="45.35807" lon="5.9085">
        <ele>1298</ele>
        <time>2021-06-25T17:31:31Z</time>
      </trkpt>
      <trkpt lat="45.35808" lon="5.90837">
        <ele>1301</ele>
        <time>2021-06-25T17:31:56Z</time>
      </trkpt>
      <trkpt lat="45.35806" lon="5.9083">
        <ele>1303</ele>
        <time>2021-06-25T17:32:11Z</time>
      </trkpt>
      <trkpt lat="45.35806" lon="5.90819">
        <ele>1306</ele>
        <time>2021-06-25T17:32:31Z</time>
      </trkpt>
      <trkpt lat="45.35806" lon="5.90805">
        <ele>1310</ele>
        <time>2021-06-25T17:32:53Z</time>
      </trkpt>
      <trkpt lat="45.35806" lon="5.90796">
        <ele>1312</ele>
        <time>2021-06-25T17:33:08Z</time>
      </trkpt>
      <trkpt lat="45.35808" lon="5.90789">
        <ele>1314</ele>
        <time>2021-06-25T17:33:28Z</time>
      </trkpt>
      <trkpt lat="45.35808" lon="5.90774">
        <ele>1321</ele>
        <time>2021-06-25T17:34:10Z</time>
      </trkpt>
      <trkpt lat="45.35804" lon="5.90761">
        <ele>1324</ele>
        <time>2021-06-25T17:34:33Z</time>
      </trkpt>
      <trkpt lat="45.35799" lon="5.90765">
        <ele>1325</ele>
        <time>2021-06-25T17:34:43Z</time>
      </trkpt>
      <trkpt lat="45.35791" lon="5.90758">
        <ele>1326</ele>
        <time>2021-06-25T17:34:53Z</time>
      </trkpt>
      <trkpt lat="45.35785" lon="5.9075">
        <ele>1327</ele>
        <time>2021-06-25T17:35:05Z</time>
      </trkpt>
      <trkpt lat="45.35778" lon="5.90747">
        <ele>1328</ele>
        <time>2021-06-25T17:35:15Z</time>
      </trkpt>
      <trkpt lat="45.35773" lon="5.90739">
        <ele>1332</ele>
        <time>2021-06-25T17:35:40Z</time>
      </trkpt>
      <trkpt lat="45.35766" lon="5.90737">
        <ele>1334</ele>
        <time>2021-06-25T17:36:05Z</time>
      </trkpt>
      <trkpt lat="45.35769" lon="5.90748">
        <ele>1332</ele>
        <time>2021-06-25T17:36:30Z</time>
      </trkpt>
      <trkpt lat="45.35783" lon="5.90761">
        <ele>1329</ele>
        <time>2021-06-25T17:36:44Z</time>
      </trkpt>
      <trkpt lat="45.35778" lon="5.90746">
        <ele>1331</ele>
        <time>2021-06-25T17:37:18Z</time>
      </trkpt>
      <trkpt lat="45.35778" lon="5.90745">
        <ele>1331</ele>
        <time>2021-06-25T17:37:37Z</time>
      </trkpt>
      <trkpt lat="45.35771" lon="5.90742">
        <ele>1332</ele>
        <time>2021-06-25T17:37:48Z</time>
      </trkpt>
      <trkpt lat="45.35764" lon="5.90733">
        <ele>1335</ele>
        <time>2021-06-25T17:38:18Z</time>
      </trkpt>
      <trkpt lat="45.35758" lon="5.90723">
        <ele>1338</ele>
        <time>2021-06-25T17:38:58Z</time>
      </trkpt>
      <trkpt lat="45.35752" lon="5.90704">
        <ele>1341</ele>
        <time>2021-06-25T17:44:51Z</time>
      </trkpt>
      <trkpt lat="45.35739" lon="5.90681">
        <ele>1349</ele>
        <time>2021-06-25T17:47:13Z</time>
      </trkpt>
      <trkpt lat="45.35733" lon="5.90657">
        <ele>1354</ele>
        <time>2021-06-25T17:47:40Z</time>
      </trkpt>
      <trkpt lat="45.35731" lon="5.90649">
        <ele>1355</ele>
        <time>2021-06-25T17:47:45Z</time>
      </trkpt>
      <trkpt lat="45.35717" lon="5.90612">
        <ele>1362</ele>
        <time>2021-06-25T17:48:22Z</time>
      </trkpt>
      <trkpt lat="45.35701" lon="5.90581">
        <ele>1368</ele>
        <time>2021-06-25T17:48:52Z</time>
      </trkpt>
      <trkpt lat="45.35695" lon="5.90575">
        <ele>1371</ele>
        <time>2021-06-25T17:49:02Z</time>
      </trkpt>
      <trkpt lat="45.35682" lon="5.90562">
        <ele>1374</ele>
        <time>2021-06-25T17:49:16Z</time>
      </trkpt>
      <trkpt lat="45.35665" lon="5.90513">
        <ele>1383</ele>
        <time>2021-06-25T17:49:54Z</time>
      </trkpt>
      <trkpt lat="45.35663" lon="5.90499">
        <ele>1387</ele>
        <time>2021-06-25T17:50:07Z</time>
      </trkpt>
      <trkpt lat="45.35661" lon="5.90487">
        <ele>1389</ele>
        <time>2021-06-25T17:50:20Z</time>
      </trkpt>
      <trkpt lat="45.35663" lon="5.90473">
        <ele>1391</ele>
        <time>2021-06-25T17:50:43Z</time>
      </trkpt>
      <trkpt lat="45.35661" lon="5.90462">
        <ele>1393</ele>
        <time>2021-06-25T17:50:55Z</time>
      </trkpt>
      <trkpt lat="45.35657" lon="5.90454">
        <ele>1396</ele>
        <time>2021-06-25T17:51:02Z</time>
      </trkpt>
      <trkpt lat="45.35629" lon="5.90412">
        <ele>1402</ele>
        <time>2021-06-25T17:51:33Z</time>
      </trkpt>
      <trkpt lat="45.35602" lon="5.90388">
        <ele>1408</ele>
        <time>2021-06-25T17:52:00Z</time>
      </trkpt>
      <trkpt lat="45.35592" lon="5.90372">
        <ele>1410</ele>
        <time>2021-06-25T17:52:12Z</time>
      </trkpt>
      <trkpt lat="45.35588" lon="5.90363">
        <ele>1413</ele>
        <time>2021-06-25T17:52:18Z</time>
      </trkpt>
      <trkpt lat="45.3558" lon="5.90356">
        <ele>1415</ele>
        <time>2021-06-25T17:52:28Z</time>
      </trkpt>
      <trkpt lat="45.35568" lon="5.90338">
        <ele>1424</ele>
        <time>2021-06-25T17:53:05Z</time>
      </trkpt>
      <trkpt lat="45.35559" lon="5.9033">
        <ele>1428</ele>
        <time>2021-06-25T17:53:18Z</time>
      </trkpt>
      <trkpt lat="45.35548" lon="5.90308">
        <ele>1437</ele>
        <time>2021-06-25T17:53:52Z</time>
      </trkpt>
      <trkpt lat="45.35543" lon="5.903">
        <ele>1438</ele>
        <time>2021-06-25T17:53:58Z</time>
      </trkpt>
      <trkpt lat="45.35535" lon="5.90291">
        <ele>1441</ele>
        <time>2021-06-25T17:54:10Z</time>
      </trkpt>
      <trkpt lat="45.3553" lon="5.90282">
        <ele>1443</ele>
        <time>2021-06-25T17:54:17Z</time>
      </trkpt>
      <trkpt lat="45.35511" lon="5.9028">
        <ele>1446</ele>
        <time>2021-06-25T17:54:29Z</time>
      </trkpt>
      <trkpt lat="45.35497" lon="5.90286">
        <ele>1449</ele>
        <time>2021-06-25T17:54:41Z</time>
      </trkpt>
      <trkpt lat="45.35481" lon="5.90296">
        <ele>1453</ele>
        <time>2021-06-25T17:54:57Z</time>
      </trkpt>
      <trkpt lat="45.35475" lon="5.9029">
        <ele>1456</ele>
        <time>2021-06-25T17:55:09Z</time>
      </trkpt>
      <trkpt lat="45.35471" lon="5.90283">
        <ele>1457</ele>
        <time>2021-06-25T17:55:48Z</time>
      </trkpt>
      <trkpt lat="45.35465" lon="5.9028">
        <ele>1455</ele>
        <time>2021-06-25T17:57:51Z</time>
      </trkpt>
      <trkpt lat="45.35471" lon="5.90275">
        <ele>1460</ele>
        <time>2021-06-25T17:58:07Z</time>
      </trkpt>
      <trkpt lat="45.35475" lon="5.90267">
        <ele>1462</ele>
        <time>2021-06-25T17:58:18Z</time>
      </trkpt>
      <trkpt lat="45.35472" lon="5.90256">
        <ele>1464</ele>
        <time>2021-06-25T17:58:39Z</time>
      </trkpt>
      <trkpt lat="45.35472" lon="5.90249">
        <ele>1467</ele>
        <time>2021-06-25T17:58:49Z</time>
      </trkpt>
      <trkpt lat="45.3547" lon="5.9024">
        <ele>1466</ele>
        <time>2021-06-25T17:59:14Z</time>
      </trkpt>
      <trkpt lat="45.35475" lon="5.90227">
        <ele>1468</ele>
        <time>2021-06-25T17:59:40Z</time>
      </trkpt>
      <trkpt lat="45.35474" lon="5.90219">
        <ele>1469</ele>
        <time>2021-06-25T17:59:48Z</time>
      </trkpt>
      <trkpt lat="45.35476" lon="5.90205">
        <ele>1468</ele>
        <time>2021-06-25T17:59:59Z</time>
      </trkpt>
      <trkpt lat="45.35482" lon="5.90196">
        <ele>1471</ele>
        <time>2021-06-25T18:00:18Z</time>
      </trkpt>
      <trkpt lat="45.35487" lon="5.90186">
        <ele>1471</ele>
        <time>2021-06-25T18:00:27Z</time>
      </trkpt>
      <trkpt lat="45.35493" lon="5.90168">
        <ele>1473</ele>
        <time>2021-06-25T18:00:49Z</time>
      </trkpt>
      <trkpt lat="45.35501" lon="5.90163">
        <ele>1476</ele>
        <time>2021-06-25T18:01:01Z</time>
      </trkpt>
      <trkpt lat="45.35508" lon="5.90161">
        <ele>1478</ele>
        <time>2021-06-25T18:01:15Z</time>
      </trkpt>
      <trkpt lat="45.35517" lon="5.9016">
        <ele>1481</ele>
        <time>2021-06-25T18:01:28Z</time>
      </trkpt>
      <trkpt lat="45.35527" lon="5.90157">
        <ele>1481</ele>
        <time>2021-06-25T18:01:41Z</time>
      </trkpt>
      <trkpt lat="45.35535" lon="5.90159">
        <ele>1484</ele>
        <time>2021-06-25T18:02:02Z</time>
      </trkpt>
      <trkpt lat="45.35543" lon="5.90158">
        <ele>1486</ele>
        <time>2021-06-25T18:02:19Z</time>
      </trkpt>
      <trkpt lat="45.35574" lon="5.90148">
        <ele>1493</ele>
        <time>2021-06-25T18:03:20Z</time>
      </trkpt>
      <trkpt lat="45.35589" lon="5.90149">
        <ele>1505</ele>
        <time>2021-06-25T18:04:00Z</time>
      </trkpt>
      <trkpt lat="45.35602" lon="5.90158">
        <ele>1504</ele>
        <time>2021-06-25T18:04:35Z</time>
      </trkpt>
      <trkpt lat="45.35615" lon="5.90146">
        <ele>1508</ele>
        <time>2021-06-25T18:05:11Z</time>
      </trkpt>
      <trkpt lat="45.35648" lon="5.9015">
        <ele>1520</ele>
        <time>2021-06-25T18:06:08Z</time>
      </trkpt>
      <trkpt lat="45.35668" lon="5.90143">
        <ele>1531</ele>
        <time>2021-06-25T18:06:39Z</time>
      </trkpt>
      <trkpt lat="45.35682" lon="5.90143">
        <ele>1533</ele>
        <time>2021-06-25T18:07:19Z</time>
      </trkpt>
      <trkpt lat="45.35686" lon="5.90134">
        <ele>1535</ele>
        <time>2021-06-25T18:08:29Z</time>
      </trkpt>
      <trkpt lat="45.35685" lon="5.90121">
        <ele>1538</ele>
        <time>2021-06-25T18:08:49Z</time>
      </trkpt>
      <trkpt lat="45.35674" lon="5.90124">
        <ele>1543</ele>
        <time>2021-06-25T18:09:30Z</time>
      </trkpt>
      <trkpt lat="45.35661" lon="5.90112">
        <ele>1549</ele>
        <time>2021-06-25T18:09:47Z</time>
      </trkpt>
      <trkpt lat="45.35657" lon="5.90102">
        <ele>1545</ele>
        <time>2021-06-25T18:09:57Z</time>
      </trkpt>
      <trkpt lat="45.35648" lon="5.90098">
        <ele>1545</ele>
        <time>2021-06-25T18:10:19Z</time>
      </trkpt>
      <trkpt lat="45.35645" lon="5.90084">
        <ele>1550</ele>
        <time>2021-06-25T18:10:32Z</time>
      </trkpt>
      <trkpt lat="45.35649" lon="5.90074">
        <ele>1552</ele>
        <time>2021-06-25T18:11:11Z</time>
      </trkpt>
      <trkpt lat="45.35639" lon="5.90056">
        <ele>1553</ele>
        <time>2021-06-25T18:12:44Z</time>
      </trkpt>
      <trkpt lat="45.35633" lon="5.90044">
        <ele>1555</ele>
        <time>2021-06-25T18:13:15Z</time>
      </trkpt>
      <trkpt lat="45.35619" lon="5.9002">
        <ele>1564</ele>
        <time>2021-06-25T18:14:02Z</time>
      </trkpt>
      <trkpt lat="45.35629" lon="5.90003">
        <ele>1563</ele>
        <time>2021-06-25T18:14:25Z</time>
      </trkpt>
      <trkpt lat="45.35615" lon="5.89991">
        <ele>1574</ele>
        <time>2021-06-25T18:15:19Z</time>
      </trkpt>
      <trkpt lat="45.35626" lon="5.89947">
        <ele>1584</ele>
        <time>2021-06-25T18:16:49Z</time>
      </trkpt>
      <trkpt lat="45.35632" lon="5.89905">
        <ele>1596</ele>
        <time>2021-06-25T18:19:34Z</time>
      </trkpt>
      <trkpt lat="45.35636" lon="5.89854">
        <ele>1603</ele>
        <time>2021-06-25T18:21:08Z</time>
      </trkpt>
      <trkpt lat="45.3563" lon="5.89812">
        <ele>1623</ele>
        <time>2021-06-25T18:23:45Z</time>
      </trkpt>
      <trkpt lat="45.35614" lon="5.89775">
        <ele>1630</ele>
        <time>2021-06-25T18:25:08Z</time>
      </trkpt>
      <trkpt lat="45.35607" lon="5.89744">
        <ele>1631</ele>
        <time>2021-06-25T18:26:19Z</time>
      </trkpt>
      <trkpt lat="45.356" lon="5.89725">
        <ele>1645</ele>
        <time>2021-06-25T18:27:14Z</time>
      </trkpt>
      <trkpt lat="45.35603" lon="5.89704">
        <ele>1650</ele>
        <time>2021-06-25T18:28:29Z</time>
      </trkpt>
      <trkpt lat="45.35599" lon="5.89684">
        <ele>1660</ele>
        <time>2021-06-25T18:29:54Z</time>
      </trkpt>
      <trkpt lat="45.35614" lon="5.89648">
        <ele>1673</ele>
        <time>2021-06-25T18:32:10Z</time>
      </trkpt>
      <trkpt lat="45.35641" lon="5.89668">
        <ele>1685</ele>
        <time>2021-06-25T18:33:47Z</time>
      </trkpt>
      <trkpt lat="45.35641" lon="5.89622">
        <ele>1696</ele>
        <time>2021-06-25T18:36:05Z</time>
      </trkpt>
      <trkpt lat="45.35642" lon="5.89578">
        <ele>1710</ele>
        <time>2021-06-25T18:37:38Z</time>
      </trkpt>
      <trkpt lat="45.35675" lon="5.89578">
        <ele>1720</ele>
        <time>2021-06-25T18:39:19Z</time>
      </trkpt>
      <trkpt lat="45.35678" lon="5.89536">
        <ele>1728</ele>
        <time>2021-06-25T18:40:21Z</time>
      </trkpt>
      <trkpt lat="45.35702" lon="5.89565">
        <ele>1745</ele>
        <time>2021-06-25T18:44:49Z</time>
      </trkpt>
      <trkpt lat="45.35711" lon="5.89524">
        <ele>1754</ele>
        <time>2021-06-25T18:45:59Z</time>
      </trkpt>
      <trkpt lat="45.35744" lon="5.89547">
        <ele>1772</ele>
        <time>2021-06-25T18:48:14Z</time>
      </trkpt>
      <trkpt lat="45.35758" lon="5.89536">
        <ele>1781</ele>
        <time>2021-06-25T18:50:41Z</time>
      </trkpt>
      <trkpt lat="45.35785" lon="5.8957">
        <ele>1785</ele>
        <time>2021-06-25T18:51:50Z</time>
      </trkpt>
      <trkpt lat="45.35806" lon="5.89605">
        <ele>1794</ele>
        <time>2021-06-25T18:52:46Z</time>
      </trkpt>
      <trkpt lat="45.3579" lon="5.89661">
        <ele>1801</ele>
        <time>2021-06-25T18:53:35Z</time>
      </trkpt>
      <trkpt lat="45.35786" lon="5.89682">
        <ele>1797</ele>
        <time>2021-06-25T18:53:53Z</time>
      </trkpt>
      <trkpt lat="45.35776" lon="5.897">
        <ele>1800</ele>
        <time>2021-06-25T18:54:09Z</time>
      </trkpt>
      <trkpt lat="45.35769" lon="5.89718">
        <ele>1801</ele>
        <time>2021-06-25T18:54:30Z</time>
      </trkpt>
      <trkpt lat="45.35759" lon="5.89739">
        <ele>1800</ele>
        <time>2021-06-25T18:54:54Z</time>
      </trkpt>
      <trkpt lat="45.35755" lon="5.89764">
        <ele>1806</ele>
        <time>2021-06-25T18:55:20Z</time>
      </trkpt>
      <trkpt lat="45.35762" lon="5.89785">
        <ele>1805</ele>
        <time>2021-06-25T18:55:42Z</time>
      </trkpt>
      <trkpt lat="45.35778" lon="5.89802">
        <ele>1807</ele>
        <time>2021-06-25T18:56:14Z</time>
      </trkpt>
      <trkpt lat="45.35788" lon="5.89779">
        <ele>1805</ele>
        <time>2021-06-25T18:56:36Z</time>
      </trkpt>
      <trkpt lat="45.35794" lon="5.8976">
        <ele>1800</ele>
        <time>2021-06-25T18:56:57Z</time>
      </trkpt>
      <trkpt lat="45.35803" lon="5.89741">
        <ele>1799</ele>
        <time>2021-06-25T18:57:18Z</time>
      </trkpt>
      <trkpt lat="45.35819" lon="5.89732">
        <ele>1806</ele>
        <time>2021-06-25T18:57:57Z</time>
      </trkpt>
      <trkpt lat="45.35834" lon="5.897">
        <ele>1832</ele>
        <time>2021-06-25T19:06:26Z</time>
      </trkpt>
      <trkpt lat="45.35842" lon="5.89718">
        <ele>1833</ele>
        <time>2021-06-25T19:06:38Z</time>
      </trkpt>
      <trkpt lat="45.35839" lon="5.89722">
        <ele>1835</ele>
        <time>2021-06-25T19:07:48Z</time>
      </trkpt>
      <trkpt lat="45.35841" lon="5.89721">
        <ele>1833</ele>
        <time>2021-06-25T19:09:18Z</time>
      </trkpt>
      <trkpt lat="45.35832" lon="5.897">
        <ele>1827</ele>
        <time>2021-06-25T19:09:53Z</time>
      </trkpt>
      <trkpt lat="45.3582" lon="5.8969">
        <ele>1827</ele>
        <time>2021-06-25T19:10:48Z</time>
      </trkpt>
      <trkpt lat="45.3583" lon="5.89674">
        <ele>1823</ele>
        <time>2021-06-25T19:12:08Z</time>
      </trkpt>
      <trkpt lat="45.35827" lon="5.89649">
        <ele>1814</ele>
        <time>2021-06-25T19:13:10Z</time>
      </trkpt>
      <trkpt lat="45.35827" lon="5.89629">
        <ele>1812</ele>
        <time>2021-06-25T19:13:19Z</time>
      </trkpt>
      <trkpt lat="45.35817" lon="5.89603">
        <ele>1804</ele>
        <time>2021-06-25T19:14:24Z</time>
      </trkpt>
      <trkpt lat="45.35811" lon="5.89577">
        <ele>1797</ele>
        <time>2021-06-25T19:14:48Z</time>
      </trkpt>
      <trkpt lat="45.35796" lon="5.89534">
        <ele>1788</ele>
        <time>2021-06-25T19:15:24Z</time>
      </trkpt>
      <trkpt lat="45.35792" lon="5.89512">
        <ele>1785</ele>
        <time>2021-06-25T19:15:39Z</time>
      </trkpt>
      <trkpt lat="45.35799" lon="5.89504">
        <ele>1781</ele>
        <time>2021-06-25T19:16:01Z</time>
      </trkpt>
      <trkpt lat="45.35801" lon="5.89494">
        <ele>1777</ele>
        <time>2021-06-25T19:16:12Z</time>
      </trkpt>
      <trkpt lat="45.35803" lon="5.89476">
        <ele>1772</ele>
        <time>2021-06-25T19:16:29Z</time>
      </trkpt>
      <trkpt lat="45.35802" lon="5.89466">
        <ele>1769</ele>
        <time>2021-06-25T19:16:39Z</time>
      </trkpt>
      <trkpt lat="45.35805" lon="5.89425">
        <ele>1761</ele>
        <time>2021-06-25T19:17:11Z</time>
      </trkpt>
      <trkpt lat="45.35807" lon="5.89396">
        <ele>1755</ele>
        <time>2021-06-25T19:17:33Z</time>
      </trkpt>
      <trkpt lat="45.35804" lon="5.89378">
        <ele>1753</ele>
        <time>2021-06-25T19:17:47Z</time>
      </trkpt>
      <trkpt lat="45.35804" lon="5.89324">
        <ele>1742</ele>
        <time>2021-06-25T19:18:21Z</time>
      </trkpt>
      <trkpt lat="45.35804" lon="5.89313">
        <ele>1741</ele>
        <time>2021-06-25T19:18:28Z</time>
      </trkpt>
      <trkpt lat="45.35795" lon="5.89286">
        <ele>1735</ele>
        <time>2021-06-25T19:18:52Z</time>
      </trkpt>
      <trkpt lat="45.35794" lon="5.89269">
        <ele>1731</ele>
        <time>2021-06-25T19:19:07Z</time>
      </trkpt>
      <trkpt lat="45.3579" lon="5.89256">
        <ele>1730</ele>
        <time>2021-06-25T19:19:17Z</time>
      </trkpt>
      <trkpt lat="45.35789" lon="5.89245">
        <ele>1732</ele>
        <time>2021-06-25T19:19:23Z</time>
      </trkpt>
      <trkpt lat="45.35786" lon="5.89235">
        <ele>1730</ele>
        <time>2021-06-25T19:19:29Z</time>
      </trkpt>
      <trkpt lat="45.35786" lon="5.89223">
        <ele>1731</ele>
        <time>2021-06-25T19:19:35Z</time>
      </trkpt>
      <trkpt lat="45.35787" lon="5.89211">
        <ele>1726</ele>
        <time>2021-06-25T19:19:45Z</time>
      </trkpt>
      <trkpt lat="45.35784" lon="5.89202">
        <ele>1727</ele>
        <time>2021-06-25T19:19:52Z</time>
      </trkpt>
      <trkpt lat="45.35779" lon="5.89193">
        <ele>1727</ele>
        <time>2021-06-25T19:19:58Z</time>
      </trkpt>
      <trkpt lat="45.35776" lon="5.89182">
        <ele>1724</ele>
        <time>2021-06-25T19:20:04Z</time>
      </trkpt>
      <trkpt lat="45.35775" lon="5.89171">
        <ele>1725</ele>
        <time>2021-06-25T19:20:12Z</time>
      </trkpt>
      <trkpt lat="45.35776" lon="5.89161">
        <ele>1722</ele>
        <time>2021-06-25T19:20:19Z</time>
      </trkpt>
      <trkpt lat="45.35771" lon="5.89135">
        <ele>1718</ele>
        <time>2021-06-25T19:20:37Z</time>
      </trkpt>
      <trkpt lat="45.35768" lon="5.89125">
        <ele>1718</ele>
        <time>2021-06-25T19:20:44Z</time>
      </trkpt>
      <trkpt lat="45.35765" lon="5.89115">
        <ele>1716</ele>
        <time>2021-06-25T19:20:52Z</time>
      </trkpt>
      <trkpt lat="45.35763" lon="5.89109">
        <ele>1719</ele>
        <time>2021-06-25T19:20:56Z</time>
      </trkpt>
      <trkpt lat="45.35758" lon="5.891">
        <ele>1712</ele>
        <time>2021-06-25T19:21:10Z</time>
      </trkpt>
      <trkpt lat="45.35755" lon="5.89089">
        <ele>1713</ele>
        <time>2021-06-25T19:21:18Z</time>
      </trkpt>
      <trkpt lat="45.35753" lon="5.89078">
        <ele>1709</ele>
        <time>2021-06-25T19:21:32Z</time>
      </trkpt>
      <trkpt lat="45.35751" lon="5.89065">
        <ele>1711</ele>
        <time>2021-06-25T19:21:39Z</time>
      </trkpt>
      <trkpt lat="45.3575" lon="5.89054">
        <ele>1710</ele>
        <time>2021-06-25T19:21:46Z</time>
      </trkpt>
      <trkpt lat="45.35748" lon="5.89043">
        <ele>1711</ele>
        <time>2021-06-25T19:21:52Z</time>
      </trkpt>
      <trkpt lat="45.35747" lon="5.89033">
        <ele>1710</ele>
        <time>2021-06-25T19:21:59Z</time>
      </trkpt>
      <trkpt lat="45.35744" lon="5.89023">
        <ele>1710</ele>
        <time>2021-06-25T19:22:05Z</time>
      </trkpt>
      <trkpt lat="45.35739" lon="5.89005">
        <ele>1707</ele>
        <time>2021-06-25T19:22:19Z</time>
      </trkpt>
      <trkpt lat="45.35736" lon="5.88994">
        <ele>1705</ele>
        <time>2021-06-25T19:22:26Z</time>
      </trkpt>
      <trkpt lat="45.35733" lon="5.88984">
        <ele>1706</ele>
        <time>2021-06-25T19:22:32Z</time>
      </trkpt>
      <trkpt lat="45.3573" lon="5.88965">
        <ele>1704</ele>
        <time>2021-06-25T19:22:47Z</time>
      </trkpt>
      <trkpt lat="45.35729" lon="5.88955">
        <ele>1707</ele>
        <time>2021-06-25T19:22:52Z</time>
      </trkpt>
      <trkpt lat="45.35729" lon="5.8893">
        <ele>1702</ele>
        <time>2021-06-25T19:23:05Z</time>
      </trkpt>
      <trkpt lat="45.35727" lon="5.88921">
        <ele>1705</ele>
        <time>2021-06-25T19:23:10Z</time>
      </trkpt>
      <trkpt lat="45.3572" lon="5.88914">
        <ele>1706</ele>
        <time>2021-06-25T19:23:21Z</time>
      </trkpt>
      <trkpt lat="45.35714" lon="5.88894">
        <ele>1703</ele>
        <time>2021-06-25T19:24:26Z</time>
      </trkpt>
      <trkpt lat="45.35706" lon="5.88877">
        <ele>1701</ele>
        <time>2021-06-25T19:24:39Z</time>
      </trkpt>
      <trkpt lat="45.35696" lon="5.88838">
        <ele>1699</ele>
        <time>2021-06-25T19:25:08Z</time>
      </trkpt>
      <trkpt lat="45.35689" lon="5.88819">
        <ele>1699</ele>
        <time>2021-06-25T19:25:20Z</time>
      </trkpt>
      <trkpt lat="45.35695" lon="5.88755">
        <ele>1695</ele>
        <time>2021-06-25T19:25:58Z</time>
      </trkpt>
      <trkpt lat="45.35699" lon="5.88735">
        <ele>1693</ele>
        <time>2021-06-25T19:26:09Z</time>
      </trkpt>
      <trkpt lat="45.35702" lon="5.88685">
        <ele>1689</ele>
        <time>2021-06-25T19:26:40Z</time>
      </trkpt>
      <trkpt lat="45.35699" lon="5.88664">
        <ele>1689</ele>
        <time>2021-06-25T19:26:53Z</time>
      </trkpt>
      <trkpt lat="45.35695" lon="5.88641">
        <ele>1687</ele>
        <time>2021-06-25T19:27:10Z</time>
      </trkpt>
      <trkpt lat="45.35689" lon="5.8862">
        <ele>1686</ele>
        <time>2021-06-25T19:27:34Z</time>
      </trkpt>
      <trkpt lat="45.35674" lon="5.88581">
        <ele>1681</ele>
        <time>2021-06-25T19:28:36Z</time>
      </trkpt>
      <trkpt lat="45.35658" lon="5.88545">
        <ele>1682</ele>
        <time>2021-06-25T19:30:48Z</time>
      </trkpt>
      <trkpt lat="45.3565" lon="5.885">
        <ele>1675</ele>
        <time>2021-06-25T19:34:31Z</time>
      </trkpt>
      <trkpt lat="45.35623" lon="5.88499">
        <ele>1673</ele>
        <time>2021-06-25T19:35:20Z</time>
      </trkpt>
      <trkpt lat="45.35638" lon="5.88541">
        <ele>1673</ele>
        <time>2021-06-25T19:38:45Z</time>
      </trkpt>
      <trkpt lat="45.35677" lon="5.88548">
        <ele>1666</ele>
        <time>2021-06-25T19:39:36Z</time>
      </trkpt>
      <trkpt lat="45.35675" lon="5.88557">
        <ele>1676</ele>
        <time>2021-06-25T19:46:25Z</time>
      </trkpt>
      <trkpt lat="45.35674" lon="5.88645">
        <ele>1674</ele>
        <time>2021-06-25T19:46:53Z</time>
      </trkpt>
      <trkpt lat="45.35696" lon="5.88692">
        <ele>1676</ele>
        <time>2021-06-25T19:47:01Z</time>
      </trkpt>
      <trkpt lat="45.35742" lon="5.88783">
        <ele>1677</ele>
        <time>2021-06-25T19:47:10Z</time>
      </trkpt>
      <trkpt lat="45.35784" lon="5.88834">
        <ele>1675</ele>
        <time>2021-06-25T19:47:15Z</time>
      </trkpt>
      <trkpt lat="45.35816" lon="5.88891">
        <ele>1678</ele>
        <time>2021-06-25T19:47:24Z</time>
      </trkpt>
      <trkpt lat="45.35678" lon="5.88589">
        <ele>1612</ele>
        <time>2021-06-25T19:53:48Z</time>
      </trkpt>
      <trkpt lat="45.35667" lon="5.88562">
        <ele>1675</ele>
        <time>2021-06-25T19:56:29Z</time>
      </trkpt>
    </trkseg>
  </trk>
  <rte>
    <name><![CDATA[4 avr. 2019 à 23:11:12]]></name>
    <cmt><![CDATA[4 avr. 2019 à 23:11:12]]></cmt>
    <desc><![CDATA[{DC1}Heure de fin	: 
Durée totale	: 0h00:00
Moyenne globale	: -
Pente moyenne	: 0.00 %
Aire incluse	: 7.4932 ha
Détails par segments
distance  | durée    | vit.moy. | vit.max. | déniv. + | déniv -
   km     | hh:mn:ss |   km/h   |   km/h   |    m     |    m
     0.81 | 00:00:00 |      0.0 |      0.0 |        0 |        0{DC2}]]></desc>
      <rtept lat="45.60077" lon="6.18221">
        <ele>1608.6</ele>
      </rtept>
      <rtept lat="45.59468" lon="6.1822">
        <ele>1760.9</ele>
      </rtept>
      <rtept lat="45.59468" lon="6.1822">
        <ele>1760.9</ele>
      </rtept>
    </rte>
  <rte>
    <name><![CDATA[10 févr. 2019 à 15:16:12]]></name>
    <cmt><![CDATA[10 févr. 2019 à 15:16:12]]></cmt>
    <desc><![CDATA[{DC1}Heure de fin	: 00:09:21
Durée totale	: -17690439h43:48
Moyenne globale	: -
Pente moyenne	: 7.00 %
Aire incluse	: 221.0936 ha
Détails par segments
distance  | durée    | vit.moy. | vit.max. | déniv. + | déniv -
   km     | hh:mn:ss |   km/h   |   km/h   |    m     |    m
     7.48 | 00:00:00 |      0.0 |      0.0 |        0 |        0{DC2}]]></desc>
      <rtept lat="45.55203" lon="5.93805">
        <ele>376</ele>
      </rtept>
      <rtept lat="45.55177" lon="5.93873">
        <ele>369</ele>
      </rtept>
      <rtept lat="45.55176" lon="5.93942">
        <ele>367</ele>
      </rtept>
      <rtept lat="45.55105" lon="5.93942">
        <ele>367</ele>
      </rtept>
      <rtept lat="45.54993" lon="5.93908">
        <ele>371</ele>
      </rtept>
      <rtept lat="45.54929" lon="5.94099">
        <ele>370</ele>
      </rtept>
      <rtept lat="45.54908" lon="5.94204">
        <ele>367</ele>
      </rtept>
      <rtept lat="45.54991" lon="5.94287">
        <ele>365</ele>
      </rtept>
      <rtept lat="45.5506" lon="5.94384">
        <ele>361</ele>
      </rtept>
      <rtept lat="45.55147" lon="5.94384">
        <ele>357</ele>
      </rtept>
      <rtept lat="45.55129" lon="5.94607">
        <ele>358</ele>
      </rtept>
      <rtept lat="45.55029" lon="5.94809">
        <ele>355</ele>
      </rtept>
      <rtept lat="45.54884" lon="5.94886">
        <ele>346</ele>
      </rtept>
      <rtept lat="45.5477" lon="5.94931">
        <ele>342</ele>
      </rtept>
      <rtept lat="45.5468" lon="5.95004">
        <ele>339</ele>
      </rtept>
      <rtept lat="45.54596" lon="5.95133">
        <ele>340</ele>
      </rtept>
      <rtept lat="45.54446" lon="5.95195">
        <ele>343</ele>
      </rtept>
      <rtept lat="45.543" lon="5.95262">
        <ele>344</ele>
      </rtept>
      <rtept lat="45.54156" lon="5.95212">
        <ele>337</ele>
      </rtept>
      <rtept lat="45.54041" lon="5.95204">
        <ele>338</ele>
      </rtept>
      <rtept lat="45.53917" lon="5.95141">
        <ele>343</ele>
      </rtept>
      <rtept lat="45.53844" lon="5.95135">
        <ele>347</ele>
      </rtept>
      <rtept lat="45.53765" lon="5.9503">
        <ele>349</ele>
      </rtept>
      <rtept lat="45.5381" lon="5.94993">
        <ele>352</ele>
      </rtept>
      <rtept lat="45.53781" lon="5.94901">
        <ele>358</ele>
      </rtept>
      <rtept lat="45.53711" lon="5.94845">
        <ele>365</ele>
      </rtept>
      <rtept lat="45.53702" lon="5.94764">
        <ele>369</ele>
      </rtept>
      <rtept lat="45.53817" lon="5.94807">
        <ele>376</ele>
      </rtept>
      <rtept lat="45.53865" lon="5.94633">
        <ele>389</ele>
      </rtept>
      <rtept lat="45.53778" lon="5.94491">
        <ele>408</ele>
      </rtept>
      <rtept lat="45.53757" lon="5.94371">
        <ele>425</ele>
      </rtept>
      <rtept lat="45.53775" lon="5.94279">
        <ele>434</ele>
      </rtept>
      <rtept lat="45.53726" lon="5.94227">
        <ele>442</ele>
      </rtept>
      <rtept lat="45.53572" lon="5.94146">
        <ele>468</ele>
      </rtept>
      <rtept lat="45.53664" lon="5.94039">
        <ele>483</ele>
      </rtept>
      <rtept lat="45.53532" lon="5.93983">
        <ele>505</ele>
      </rtept>
      <rtept lat="45.53416" lon="5.93985">
        <ele>516</ele>
      </rtept>
      <rtept lat="45.5355" lon="5.93869">
        <ele>532</ele>
      </rtept>
      <rtept lat="45.5359" lon="5.93845">
        <ele>537</ele>
      </rtept>
      <rtept lat="45.5355" lon="5.93802">
        <ele>544</ele>
      </rtept>
      <rtept lat="45.53724" lon="5.93554">
        <ele>587</ele>
      </rtept>
      <rtept lat="45.53691" lon="5.93339">
        <ele>592</ele>
      </rtept>
      <rtept lat="45.5376" lon="5.93178">
        <ele>575</ele>
      </rtept>
      <rtept lat="45.53843" lon="5.93069">
        <ele>555</ele>
      </rtept>
      <rtept lat="45.53939" lon="5.93157">
        <ele>541</ele>
      </rtept>
      <rtept lat="45.54068" lon="5.93234">
        <ele>522</ele>
      </rtept>
      <rtept lat="45.54219" lon="5.93247">
        <ele>514</ele>
      </rtept>
      <rtept lat="45.54355" lon="5.93232">
        <ele>512</ele>
      </rtept>
      <rtept lat="45.54489" lon="5.9326">
        <ele>508</ele>
      </rtept>
      <rtept lat="45.54636" lon="5.93249">
        <ele>510</ele>
      </rtept>
      <rtept lat="45.54758" lon="5.93249">
        <ele>510</ele>
      </rtept>
      <rtept lat="45.54818" lon="5.93298">
        <ele>507</ele>
      </rtept>
      <rtept lat="45.54796" lon="5.93418">
        <ele>496</ele>
      </rtept>
      <rtept lat="45.5491" lon="5.93433">
        <ele>483</ele>
      </rtept>
      <rtept lat="45.55126" lon="5.9341">
        <ele>463</ele>
      </rtept>
      <rtept lat="45.55256" lon="5.93453">
        <ele>444</ele>
      </rtept>
      <rtept lat="45.55329" lon="5.93558">
        <ele>430</ele>
      </rtept>
      <rtept lat="45.55222" lon="5.93642">
        <ele>415</ele>
      </rtept>
      <rtept lat="45.55195" lon="5.93811">
        <ele>375</ele>
      </rtept>
    </rte>
  <rte>
    <name><![CDATA[10 févr. 2019 à 15:15:48]]></name>
    <cmt><![CDATA[10 févr. 2019 à 15:15:48]]></cmt>
    <desc><![CDATA[{DC1}Heure de fin	: 00:09:21
Durée totale	: -17690439h44:12
Moyenne globale	: -
Pente moyenne	: nan %
Aire incluse	: 0.0000 ha
Détails par segments
distance  | durée    | vit.moy. | vit.max. | déniv. + | déniv -
   km     | hh:mn:ss |   km/h   |   km/h   |    m     |    m
     0.00 | 00:00:00 |      0.0 |      0.0 |        0 |        0{DC2}]]></desc>
      <rtept lat="45.5175" lon="5.93483">
        <ele>732.3</ele>
      </rtept>
    </rte>
  <rte>
    <name><![CDATA[10 févr. 2019 à 15:06:08]]></name>
    <cmt><![CDATA[10 févr. 2019 à 15:06:08]]></cmt>
    <desc><![CDATA[{DC1}Heure de fin	: 
Durée totale	: 0h00:00
Moyenne globale	: -
Pente moyenne	: 8.03 %
Aire incluse	: 204.0794 ha
Détails par segments
distance  | durée    | vit.moy. | vit.max. | déniv. + | déniv -
   km     | hh:mn:ss |   km/h   |   km/h   |    m     |    m
    12.88 | 00:00:00 |      0.0 |      0.0 |        0 |        0{DC2}]]></desc>
      <rtept lat="45.5509" lon="5.9394">
        <ele>368</ele>
      </rtept>
      <rtept lat="45.55217" lon="5.93791">
        <ele>377</ele>
      </rtept>
    </rte>
  <rte>
    <name><![CDATA[10 févr. 2019 à 14:22:06]]></name>
    <cmt><![CDATA[10 févr. 2019 à 14:22:06]]></cmt>
    <desc><![CDATA[{DC1}Heure de fin	: 00:09:21
Durée totale	: -17690438h37:54
Moyenne globale	: -
Pente moyenne	: 5.62 %
Aire incluse	: 5.7967 ha
Détails par segments
distance  | durée    | vit.moy. | vit.max. | déniv. + | déniv -
   km     | hh:mn:ss |   km/h   |   km/h   |    m     |    m
     3.30 | 00:00:00 |      0.0 |      0.0 |        0 |        0{DC2}]]></desc>
      <rtept lat="45.55169" lon="5.93089">
        <ele>415</ele>
      </rtept>
      <rtept lat="45.5518" lon="5.93905">
        <ele>366</ele>
      </rtept>
    </rte>
  <rte>
    <name><![CDATA[10 févr. 2019 à 09:50:45]]></name>
    <cmt><![CDATA[10 févr. 2019 à 09:50:45]]></cmt>
    <desc><![CDATA[{DC1}Heure de fin	: 00:09:21
Durée totale	: -17690433h09:14
Moyenne globale	: -
Pente moyenne	: 0.00 %
Aire incluse	: 50.7119 ha
Détails par segments
distance  | durée    | vit.moy. | vit.max. | déniv. + | déniv -
   km     | hh:mn:ss |   km/h   |   km/h   |    m     |    m
     4.33 | 00:00:00 |      0.0 |      0.0 |        0 |        0{DC2}]]></desc>
      <rtept lat="45.5503" lon="5.93918">
        <ele>373.6</ele>
      </rtept>
      <rtept lat="45.55191" lon="5.93893">
        <ele>366.7</ele>
      </rtept>
    </rte>
  <rte>
    <name><![CDATA[10 févr. 2019 à 09:07:08]]></name>
    <cmt><![CDATA[10 févr. 2019 à 09:07:08]]></cmt>
    <desc><![CDATA[{DC1}Heure de fin	: 00:09:21
Durée totale	: -17690433h52:52
Moyenne globale	: -
Pente moyenne	: nan %
Aire incluse	: 0.0000 ha
Détails par segments
distance  | durée    | vit.moy. | vit.max. | déniv. + | déniv -
   km     | hh:mn:ss |   km/h   |   km/h   |    m     |    m
     0.00 | 00:00:00 |      0.0 |      0.0 |        0 |        0{DC2}]]></desc>
      <rtept lat="45.55102" lon="5.93919">
        <ele>370.1</ele>
      </rtept>
    </rte>
  <rte>
    <name><![CDATA[10 févr. 2019 à 09:02:25]]></name>
    <cmt><![CDATA[10 févr. 2019 à 09:02:25]]></cmt>
    <desc><![CDATA[{DC1}Heure de fin	: 00:09:21
Durée totale	: -17690433h57:35
Moyenne globale	: -
Pente moyenne	: nan %
Aire incluse	: 0.0000 ha
Détails par segments
distance  | durée    | vit.moy. | vit.max. | déniv. + | déniv -
   km     | hh:mn:ss |   km/h   |   km/h   |    m     |    m
     0.00 | 00:00:00 |      0.0 |      0.0 |        0 |        0{DC2}]]></desc>
      <rtept lat="45.55207" lon="5.93813">
        <ele>375.2</ele>
      </rtept>
    </rte>
  <rte>
    <name><![CDATA[10 févr. 2019 à 09:00:27]]></name>
    <cmt><![CDATA[10 févr. 2019 à 09:00:27]]></cmt>
    <desc><![CDATA[{DC1}Heure de fin	: 00:09:21
Durée totale	: -17690433h59:32
Moyenne globale	: -
Pente moyenne	: nan %
Aire incluse	: 0.0000 ha
Détails par segments
distance  | durée    | vit.moy. | vit.max. | déniv. + | déniv -
   km     | hh:mn:ss |   km/h   |   km/h   |    m     |    m
     0.00 | 00:00:00 |      0.0 |      0.0 |        0 |        0{DC2}]]></desc>
      <rtept lat="45.55244" lon="5.93858">
        <ele>366.6</ele>
      </rtept>
    </rte>
</gpx>